Mc Laughlin, South Dakota
Current Conditions -  °F | °C
As of 12:52 AM on Thursday 27 Nov 2014 (Local Time) from KMBG Reporting Station
Scattered Clouds Scattered Clouds  
Wind Chill: -14°   Ceiling: Unl
Heat Index:   Visibility: 10mi
Dew Point: -5°   Wind: 8mph
Humidity: 79%   Direction: 90°E
Pressure: 30.41"   Gusts: NA
Location:  45.6923°N, 100.994°W
Report Text: KMBG 270752Z AUTO 09007KT 10SM SCT005 M18/M21 A3041 RMK AO2 SLP340 T11781206
Loading
Personal Weather Stations






























Interactive Weather Map New forecast layout! Learn more

10-Day Weather Forecast

Advertisements
Track Severe Weather on mobile